Vassan, Canada
Current Conditions -  °F | °C
As of 2:19 AM on Sunday 23 Nov 2014 (Local Time) from CYVO Reporting Station
NA  
Wind Chill: 30°   Ceiling: NA
Heat Index: 34°   Visibility: 6mi
Dew Point: 32°   Wind: 5mph
Humidity: 93%   Direction: 260°W
Pressure: 29.8"   Gusts: NA
Location:  48.27°N, 77.98°W
Report Text: CYVO 230719Z AUTO 26004KT 210V300 6SM 01/00 A2980 RMK PRESRR CLD MISG SLP110
Loading
Personal Weather Stations






























Interactive Weather Map New forecast layout! Learn more

10-Day Weather Forecast

Advertisements
Track Severe Weather on mobile